DAAGDAOO

Guest
Details From DAAG - Alger Houari Boumediene
To DAOO - ES SENIA
Flight Number -
Tags generated
Created
Modified
Stats Distance 197 nm / 366 km
Max Altitude 24,500 ft / 7,468 m
Waypoints 4
Social Downloads 3
Likes 0
Share VATSIM

Download

Looking for another format? Having issues loading an existing format? Contact us
Advertisement - Login to hide

Notes

Basic altitude profile: - Ascent Rate: 2500ft/min - Ascent Speed: 240kts - Cruise Altitude: 35000ft - Cruise Speed: 350kts - Descent Rate: 1500ft/min - Descent Speed: 210kts Options: - Use NATs: yes - Use PACOTS: yes - Use low airways: no - Use high airways: yes

Route

DAAG DAHRA UA411 MOS DAOO

ID Type Via Altitude Latitude Longitude Leg Dist Tot Dist Heading (true) Name
O DAAG APT - 0 ft / 0 m 36.69752˚ 3.21308˚ - 0 nm - Alger Houari Boumediene
DAHRA FIX - 24,100 ft / 7,346 m 36.38333˚ 1.50000˚ 84 nm 84 nm 258° / 257° -
MOS VOR UA411 (AWY-HI) 24,500 ft / 7,468 m 35.89861˚ 0.13639˚ 72 nm 157 nm 247° / 246° MOSTAGANEM VOR-DME
O DAOO APT - 0 ft / 0 m 35.62386˚ -0.62118˚ 40 nm 197 nm 246° / 246° ES SENIA

Altitude Profile

Advertisement - Login to hide

Weather


0- 5 10 15 20 25 30 35+ Temperature / ° C

Clouds and Precipitation
Forecast for 2018-05-21 12:00 UTC. Updated 8 minutes ago

Ground ~20,000 ft ~40,000 ft Winds

DAAG

Details ICAO DAAG (ALG)
Name Alger Houari Boumediene
Region Algeria
Timezone Africa/Algiers (UTC+1.0)
Stats Elevation 82 ft / 25 m (AMSL)
Location 36.697521° 3.213079°
Runways 2
Magnetic Variation 1.102° E

METAR

DAAG 211100Z VRB02KT 9999 SCT020TCU 22/14 Q1013

Decode

TAF

TAF AMD DAAG 210905Z 2109/2206 VRB02KT 8000 SCT020 SCT080 TEMPO 2109/2117 FEW020TCU FEW023CB BECMG 2110/2113 36010KT PROB30 TEMPO 2111/2117 5000 -RA FEW023CB PROB40 2122/2206 3000 BR BKN013 PROB30 TEMPO 2200/2206 0800 FG BKN008

Decode

Departure Runways

ID Width Length Bearing (true) Bearing (mag) Surface Threshold Offset Overrun Length
05 197 ft / 60 m 11,459 ft / 3,493 m 52.87° 51.77° Asphalt 0 ft / 0 m 0 ft / 0 m
09 148 ft / 45 m 11,442 ft / 3,487 m 91.75° 90.65° Asphalt 0 ft / 0 m 1,017 ft / 310 m
23 197 ft / 60 m 11,459 ft / 3,493 m 232.89° 231.79° Asphalt 0 ft / 0 m 0 ft / 0 m
27 148 ft / 45 m 11,442 ft / 3,487 m 271.78° 270.68° Asphalt 0 ft / 0 m 0 ft / 0 m

DAOO

Details ICAO DAOO (ORN)
Name ES SENIA
Region Algeria
Timezone Africa/Algiers (UTC+1.0)
Stats Elevation 295 ft / 90 m (AMSL)
Location 35.623858° -0.621183°
Runways 1
Magnetic Variation 0.197° E

METAR

DAOO 211100Z 35006KT 290V060 9999 SCT026 22/13 Q1012

Decode

TAF

TAF DAOO 210500Z 2106/2206 VRB02KT 2000 BR FEW013 PROB30 TEMPO 2106/2108 0500 FG BKN010 BECMG 2109/2112 34010KT CAVOK BECMG 2120/2123 VRB02KT

Decode

Destination Runways

ID Width Length Bearing (true) Bearing (mag) Surface Threshold Offset Overrun Length
07 148 ft / 45 m 10,006 ft / 3,050 m 67.06° 66.86° Asphalt 0 ft / 0 m 328 ft / 100 m
25 148 ft / 45 m 10,006 ft / 3,050 m 247.08° 246.88° Asphalt 196 ft / 60 m 0 ft / 0 m

Popular Alternatives